Time;durP1;ratioP1;P1;durP2;ratioP2;P2;SDS_P1;SDS_P2;PMS_P1;PMS_P2;Temp;Humidity;BMP_temperature;BMP_pressure;BME280_temperature;BME280_humidity;BME280_pressure;Samples;Min_cycle;Max_cycle;Signal;HPM_P1;HPM_P2
2023/08/22 00:00:57;;;;;;;11.35;5.57;;;;;;;;;;5022969;28;20041;-71
2023/08/22 00:03:42;;;;;;;9.57;5.57;;;;;;;;;;5030617;28;20032;-78
2023/08/22 00:06:27;;;;;;;7.75;5.40;;;;;;;;;;5026783;28;20467;-71
2023/08/22 00:09:12;;;;;;;10.60;5.65;;;;;;;;;;5030878;28;20716;-71
2023/08/22 00:11:57;;;;;;;11.02;5.00;;;;;;;;;;5030552;28;20044;-70
2023/08/22 00:14:43;;;;;;;11.32;5.50;;;;;;;;;;5028562;28;20396;-68
2023/08/22 00:17:28;;;;;;;10.10;6.38;;;;;;;;;;5014260;28;20113;-70
2023/08/22 00:20:13;;;;;;;9.43;5.60;;;;;;;;;;5032041;28;20029;-69
2023/08/22 00:22:58;;;;;;;10.00;5.20;;;;;;;;;;5035389;28;20040;-74
2023/08/22 00:25:44;;;;;;;9.35;4.93;;;;;;;;;;5038676;28;20091;-72
2023/08/22 00:28:29;;;;;;;9.27;5.00;;;;;;;;;;5020714;28;20088;-74
2023/08/22 00:31:14;;;;;;;8.50;5.20;;;;;;;;;;5013179;28;20053;-74
2023/08/22 00:34:01;;;;;;;12.18;5.75;;;;;;;;;;5030287;28;20025;-73
2023/08/22 00:36:47;;;;;;;9.07;5.07;;;;;;;;;;5030768;28;20040;-72
2023/08/22 00:39:32;;;;;;;8.65;5.50;;;;;;;;;;5016924;28;20441;-74
2023/08/22 00:42:17;;;;;;;9.30;5.60;;;;;;;;;;5015035;28;20060;-81
2023/08/22 00:45:03;;;;;;;10.90;6.88;;;;;;;;;;5030115;28;20051;-68
2023/08/22 00:47:49;;;;;;;10.73;5.38;;;;;;;;;;5028524;28;20033;-71
2023/08/22 00:50:34;;;;;;;8.15;5.10;;;;;;;;;;5018418;28;20530;-69
2023/08/22 00:53:19;;;;;;;9.48;5.95;;;;;;;;;;5033214;28;20102;-69
2023/08/22 00:56:05;;;;;;;8.82;5.38;;;;;;;;;;5031239;28;20433;-69
2023/08/22 00:58:51;;;;;;;9.15;5.25;;;;;;;;;;5028864;28;20037;-70
2023/08/22 01:01:36;;;;;;;7.35;5.00;;;;;;;;;;5032421;28;20167;-81
2023/08/22 01:04:21;;;;;;;7.95;4.80;;;;;;;;;;5029586;28;20036;-70
2023/08/22 01:07:11;;;;;;;7.35;4.65;;;;;;;;;;5044153;28;20106;-69
2023/08/22 01:09:59;;;;;;;6.80;5.13;;;;;;;;;;5031309;28;20106;-69
2023/08/22 01:12:49;;;;;;;6.93;4.53;;;;;;;;;;5029167;28;20095;-69
2023/08/22 01:15:35;;;;;;;10.50;5.03;;;;;;;;;;5053830;28;20060;-67
2023/08/22 01:18:21;;;;;;;8.65;6.65;;;;;;;;;;5031087;28;20037;-78
2023/08/22 01:21:06;;;;;;;10.05;5.63;;;;;;;;;;5028256;28;20539;-77
2023/08/22 01:23:52;;;;;;;8.13;4.90;;;;;;;;;;5032384;28;20057;-79
2023/08/22 01:26:37;;;;;;;10.55;5.20;;;;;;;;;;5029514;28;20037;-77
2023/08/22 01:29:34;;;;;;;10.57;5.68;;;;;;;;;;5032855;28;20033;-77
2023/08/22 01:32:22;;;;;;;7.28;4.93;;;;;;;;;;5031246;28;20025;-76
2023/08/22 01:35:11;;;;;;;11.07;5.80;;;;;;;;;;5011997;28;20037;-78
2023/08/22 01:37:57;;;;;;;9.05;5.70;;;;;;;;;;5041501;28;20542;-74
2023/08/22 01:40:42;;;;;;;10.73;5.90;;;;;;;;;;5032620;28;20403;-72
2023/08/22 01:43:27;;;;;;;8.07;5.22;;;;;;;;;;5031314;28;20380;-73
2023/08/22 01:46:13;;;;;;;11.68;5.35;;;;;;;;;;5031614;28;20039;-72
2023/08/22 01:48:58;;;;;;;9.20;4.68;;;;;;;;;;5014618;28;20041;-71
2023/08/22 01:51:43;;;;;;;8.25;5.15;;;;;;;;;;5019378;28;20511;-72
2023/08/22 01:54:28;;;;;;;7.13;5.03;;;;;;;;;;5031395;28;20025;-69
2023/08/22 01:57:13;;;;;;;9.75;5.50;;;;;;;;;;5030377;28;20036;-71
2023/08/22 01:59:59;;;;;;;7.35;4.68;;;;;;;;;;5025777;28;20033;-71
2023/08/22 02:02:44;;;;;;;7.65;5.30;;;;;;;;;;5024785;28;20037;-72
2023/08/22 02:05:29;;;;;;;11.52;5.93;;;;;;;;;;5026182;28;20060;-70
2023/08/22 02:08:14;;;;;;;7.22;5.00;;;;;;;;;;5028652;28;20145;-71
2023/08/22 02:11:00;;;;;;;7.63;5.32;;;;;;;;;;5037296;28;20039;-71
2023/08/22 02:13:45;;;;;;;6.47;5.10;;;;;;;;;;5032132;28;20033;-70
2023/08/22 02:16:30;;;;;;;7.65;5.00;;;;;;;;;;5051909;28;20104;-72
2023/08/22 02:19:16;;;;;;;11.45;5.85;;;;;;;;;;5028078;28;20029;-73
2023/08/22 02:22:01;;;;;;;7.93;4.65;;;;;;;;;;5002782;28;20052;-75
2023/08/22 02:24:47;;;;;;;8.82;5.07;;;;;;;;;;5017462;28;20474;-74
2023/08/22 02:27:32;;;;;;;8.05;5.20;;;;;;;;;;5024878;28;20090;-74
2023/08/22 02:30:17;;;;;;;9.45;5.47;;;;;;;;;;5023570;28;20048;-74
2023/08/22 02:33:02;;;;;;;7.57;4.68;;;;;;;;;;5013101;28;20052;-73
2023/08/22 02:35:48;;;;;;;6.93;4.75;;;;;;;;;;5036281;28;20037;-72
2023/08/22 02:38:33;;;;;;;7.82;4.75;;;;;;;;;;4999392;28;20522;-69
2023/08/22 02:41:18;;;;;;;12.68;5.55;;;;;;;;;;5000404;28;20049;-71
2023/08/22 02:44:03;;;;;;;7.40;5.22;;;;;;;;;;4998844;28;20180;-69
2023/08/22 02:46:49;;;;;;;9.45;5.60;;;;;;;;;;5030370;28;20032;-69
2023/08/22 02:49:34;;;;;;;7.05;4.65;;;;;;;;;;5043975;28;20510;-71
2023/08/22 02:52:19;;;;;;;9.43;4.55;;;;;;;;;;5021535;28;20384;-72
2023/08/22 02:55:04;;;;;;;8.18;5.63;;;;;;;;;;5012933;28;20036;-74
2023/08/22 02:57:50;;;;;;;9.55;5.10;;;;;;;;;;5035088;28;20029;-73
2023/08/22 03:00:35;;;;;;;8.43;5.28;;;;;;;;;;5041187;28;20056;-71
2023/08/22 03:03:20;;;;;;;9.13;5.68;;;;;;;;;;5030798;28;20036;-73
2023/08/22 03:06:05;;;;;;;7.93;4.78;;;;;;;;;;5014784;28;20488;-72
2023/08/22 03:08:51;;;;;;;11.80;5.53;;;;;;;;;;5016108;28;20067;-71
2023/08/22 03:11:37;;;;;;;7.50;5.00;;;;;;;;;;5016964;28;20029;-72
2023/08/22 03:14:22;;;;;;;8.40;5.60;;;;;;;;;;4994727;28;20044;-74
2023/08/22 03:17:07;;;;;;;12.20;6.05;;;;;;;;;;5010294;28;20032;-73
2023/08/22 03:19:53;;;;;;;7.70;4.90;;;;;;;;;;5032949;28;20371;-73
2023/08/22 03:22:38;;;;;;;11.02;5.30;;;;;;;;;;5024297;28;20040;-72
2023/08/22 03:25:23;;;;;;;8.80;5.82;;;;;;;;;;5022072;28;20032;-71
2023/08/22 03:28:08;;;;;;;6.80;4.72;;;;;;;;;;5036264;28;20037;-80
2023/08/22 03:30:55;;;;;;;8.90;5.30;;;;;;;;;;5010494;28;20393;-68
2023/08/22 03:33:41;;;;;;;15.25;5.50;;;;;;;;;;5031752;28;20504;-69
2023/08/22 03:36:27;;;;;;;7.65;4.97;;;;;;;;;;5019983;28;20037;-69
2023/08/22 03:39:12;;;;;;;7.72;5.50;;;;;;;;;;5012092;28;20216;-69
2023/08/22 03:41:57;;;;;;;9.43;5.25;;;;;;;;;;5020039;28;20072;-69
2023/08/22 03:44:42;;;;;;;9.15;4.68;;;;;;;;;;5023238;28;20481;-73
2023/08/22 03:47:28;;;;;;;10.10;5.10;;;;;;;;;;5022114;28;20037;-69
2023/08/22 03:50:13;;;;;;;8.43;5.18;;;;;;;;;;5016002;28;20044;-68
2023/08/22 03:52:58;;;;;;;10.27;5.18;;;;;;;;;;5018054;28;20041;-69
2023/08/22 03:55:43;;;;;;;10.38;5.47;;;;;;;;;;5030917;28;20048;-69
2023/08/22 03:58:29;;;;;;;7.88;5.22;;;;;;;;;;5027257;28;20498;-68
2023/08/22 04:01:14;;;;;;;9.18;5.00;;;;;;;;;;5021579;28;20037;-67
2023/08/22 04:03:59;;;;;;;9.23;5.57;;;;;;;;;;5034433;28;20037;-72
2023/08/22 04:06:44;;;;;;;7.68;4.93;;;;;;;;;;5017025;28;20061;-68
2023/08/22 04:09:29;;;;;;;7.80;5.45;;;;;;;;;;5034836;28;20045;-69
2023/08/22 04:12:15;;;;;;;7.63;5.10;;;;;;;;;;5017463;28;20086;-67
2023/08/22 04:15:00;;;;;;;9.38;5.38;;;;;;;;;;5016560;28;20504;-68
2023/08/22 04:17:45;;;;;;;7.93;4.80;;;;;;;;;;5018181;28;20056;-68
2023/08/22 04:20:30;;;;;;;10.98;5.40;;;;;;;;;;5030036;28;20037;-69
2023/08/22 04:23:15;;;;;;;11.57;5.50;;;;;;;;;;5008062;28;20392;-71
2023/08/22 04:26:01;;;;;;;8.45;5.60;;;;;;;;;;5013859;28;20041;-78
2023/08/22 04:28:46;;;;;;;7.95;5.07;;;;;;;;;;5030145;28;20025;-78
2023/08/22 04:31:31;;;;;;;7.75;5.10;;;;;;;;;;5033737;28;20501;-78
2023/08/22 04:34:16;;;;;;;10.27;5.10;;;;;;;;;;5034895;28;20427;-79
2023/08/22 04:37:01;;;;;;;7.57;4.95;;;;;;;;;;5032269;28;20048;-79
2023/08/22 04:39:47;;;;;;;7.55;5.40;;;;;;;;;;5041160;28;20052;-77
2023/08/22 04:42:32;;;;;;;7.38;5.15;;;;;;;;;;5036095;28;20071;-74
2023/08/22 04:45:17;;;;;;;8.82;5.95;;;;;;;;;;5048998;28;20432;-73
2023/08/22 04:48:03;;;;;;;12.07;6.80;;;;;;;;;;5049961;28;20025;-73
2023/08/22 04:50:48;;;;;;;8.38;5.35;;;;;;;;;;5049386;28;20037;-72
2023/08/22 04:53:33;;;;;;;7.90;5.82;;;;;;;;;;5043263;28;20039;-74
2023/08/22 04:56:19;;;;;;;7.60;5.38;;;;;;;;;;5042359;28;20029;-71
2023/08/22 04:59:04;;;;;;;9.40;5.10;;;;;;;;;;5036649;28;20041;-73
2023/08/22 05:01:49;;;;;;;13.13;6.45;;;;;;;;;;5045080;28;20029;-77
2023/08/22 05:04:34;;;;;;;11.65;5.18;;;;;;;;;;5042172;28;20039;-77
2023/08/22 05:07:19;;;;;;;13.52;4.88;;;;;;;;;;5040126;28;20035;-75
2023/08/22 05:10:05;;;;;;;8.93;5.53;;;;;;;;;;5060372;28;20044;-71
2023/08/22 05:12:50;;;;;;;7.70;5.57;;;;;;;;;;5040497;28;20037;-73
2023/08/22 05:15:35;;;;;;;8.30;5.15;;;;;;;;;;5038749;28;20060;-72
2023/08/22 05:18:20;;;;;;;8.85;6.13;;;;;;;;;;5047394;28;20108;-67
2023/08/22 05:21:06;;;;;;;8.18;4.88;;;;;;;;;;5040049;28;20108;-70
2023/08/22 05:23:51;;;;;;;9.75;5.68;;;;;;;;;;5045309;28;20116;-68
2023/08/22 05:26:36;;;;;;;11.75;6.18;;;;;;;;;;5047340;28;20411;-69
2023/08/22 05:29:22;;;;;;;9.70;5.63;;;;;;;;;;5051528;28;20032;-70
2023/08/22 05:32:07;;;;;;;6.63;5.05;;;;;;;;;;5032797;28;20032;-71
2023/08/22 05:34:52;;;;;;;7.65;4.85;;;;;;;;;;5043769;28;20042;-79
2023/08/22 05:37:37;;;;;;;9.13;4.88;;;;;;;;;;5045320;28;20033;-73
2023/08/22 05:40:23;;;;;;;9.27;5.47;;;;;;;;;;5046395;28;20037;-71
2023/08/22 05:43:08;;;;;;;8.80;3.90;;;;;;;;;;5032341;28;20056;-72
2023/08/22 05:45:53;;;;;;;9.93;4.40;;;;;;;;;;5046772;28;20047;-70
2023/08/22 05:48:38;;;;;;;10.38;4.50;;;;;;;;;;5041394;28;20394;-70
2023/08/22 05:51:24;;;;;;;13.40;5.35;;;;;;;;;;5047179;28;20238;-69
2023/08/22 05:54:09;;;;;;;6.65;4.18;;;;;;;;;;5049495;28;20072;-70
2023/08/22 05:56:54;;;;;;;10.98;4.18;;;;;;;;;;5050538;28;20127;-71
2023/08/22 05:59:39;;;;;;;6.40;4.57;;;;;;;;;;5040312;28;20033;-69
2023/08/22 06:02:24;;;;;;;8.45;3.85;;;;;;;;;;5041282;28;20033;-77
2023/08/22 06:05:09;;;;;;;6.97;4.18;;;;;;;;;;5041284;28;20447;-77
2023/08/22 06:07:55;;;;;;;10.35;5.18;;;;;;;;;;5039284;28;20032;-73
2023/08/22 06:10:42;;;;;;;8.30;4.90;;;;;;;;;;5054013;28;20037;-74
2023/08/22 06:13:28;;;;;;;10.40;5.00;;;;;;;;;;5053609;28;20489;-73
2023/08/22 06:16:13;;;;;;;11.52;5.07;;;;;;;;;;5054254;28;20051;-75
2023/08/22 06:18:59;;;;;;;7.35;4.82;;;;;;;;;;5040292;28;20063;-74
2023/08/22 06:21:44;;;;;;;5.93;4.43;;;;;;;;;;5038223;28;20065;-73
2023/08/22 06:24:30;;;;;;;8.93;4.57;;;;;;;;;;5038620;28;20033;-74
2023/08/22 06:27:15;;;;;;;9.32;5.13;;;;;;;;;;5026488;28;20036;-77
2023/08/22 06:30:01;;;;;;;10.77;4.75;;;;;;;;;;5021942;28;20073;-70
2023/08/22 06:32:46;;;;;;;10.10;4.82;;;;;;;;;;5030978;28;20315;-73
2023/08/22 06:35:31;;;;;;;9.57;5.47;;;;;;;;;;5020040;28;20037;-76
2023/08/22 06:38:16;;;;;;;9.73;4.63;;;;;;;;;;5041069;28;20107;-74
2023/08/22 06:41:05;;;;;;;11.88;5.38;;;;;;;;;;5020539;28;20072;-74
2023/08/22 06:43:50;;;;;;;22.05;6.47;;;;;;;;;;5025466;28;20106;-74
2023/08/22 06:46:36;;;;;;;12.48;5.40;;;;;;;;;;5027439;28;20084;-73
2023/08/22 06:49:21;;;;;;;12.02;5.82;;;;;;;;;;5024598;28;20041;-74
2023/08/22 06:52:06;;;;;;;9.75;6.03;;;;;;;;;;5025511;28;20036;-70
2023/08/22 06:54:52;;;;;;;11.00;6.30;;;;;;;;;;5025943;28;20036;-71
2023/08/22 06:57:37;;;;;;;11.32;6.00;;;;;;;;;;5025372;28;20033;-71
2023/08/22 07:00:24;;;;;;;12.85;5.35;;;;;;;;;;5025970;28;20075;-71
2023/08/22 07:03:09;;;;;;;9.48;4.88;;;;;;;;;;5043490;28;20032;-70
2023/08/22 07:05:54;;;;;;;7.97;4.45;;;;;;;;;;5022245;28;20044;-70
2023/08/22 07:08:39;;;;;;;7.90;4.80;;;;;;;;;;5041786;28;20106;-75
2023/08/22 07:11:25;;;;;;;8.43;4.32;;;;;;;;;;5025428;28;20045;-76
2023/08/22 07:14:10;;;;;;;9.55;4.78;;;;;;;;;;5024546;28;20040;-78
2023/08/22 07:16:55;;;;;;;6.20;4.03;;;;;;;;;;5032471;28;20033;-79
2023/08/22 07:19:40;;;;;;;7.80;4.45;;;;;;;;;;5030042;28;20035;-77
2023/08/22 07:22:25;;;;;;;8.10;4.30;;;;;;;;;;5031203;28;20032;-77
2023/08/22 07:25:11;;;;;;;6.75;3.72;;;;;;;;;;5030375;28;20036;-77
2023/08/22 07:27:56;;;;;;;7.22;4.38;;;;;;;;;;5027374;28;20053;-69
2023/08/22 07:30:44;;;;;;;11.45;4.40;;;;;;;;;;5029752;28;20483;-67
2023/08/22 07:33:29;;;;;;;8.77;4.13;;;;;;;;;;5031496;28;20086;-67
2023/08/22 07:36:18;;;;;;;9.27;4.70;;;;;;;;;;5031770;28;20035;-67
2023/08/22 07:39:03;;;;;;;;;;;;;;;;;;5018574;28;20060;-69
2023/08/22 07:41:49;;;;;;;8.65;4.45;;;;;;;;;;5031991;28;20318;-72
2023/08/22 07:44:34;;;;;;;5.22;3.78;;;;;;;;;;5031238;28;20045;-72
2023/08/22 07:47:19;;;;;;;7.68;3.72;;;;;;;;;;5034304;28;20483;-70
2023/08/22 07:50:05;;;;;;;8.98;4.30;;;;;;;;;;5031930;28;20084;-71
2023/08/22 07:52:50;;;;;;;9.43;4.20;;;;;;;;;;5025132;28;20060;-72
2023/08/22 07:55:35;;;;;;;8.38;4.43;;;;;;;;;;5030632;28;20107;-71
2023/08/22 07:58:21;;;;;;;6.82;4.07;;;;;;;;;;5049635;28;20553;-70
2023/08/22 08:01:06;;;;;;;6.50;3.75;;;;;;;;;;5030842;28;20175;-69
2023/08/22 08:03:51;;;;;;;8.27;3.95;;;;;;;;;;5030065;28;20071;-72
2023/08/22 08:06:36;;;;;;;7.93;4.05;;;;;;;;;;5031841;28;20045;-71
2023/08/22 08:09:22;;;;;;;7.90;4.70;;;;;;;;;;5040737;28;20087;-69
2023/08/22 08:12:07;;;;;;;9.05;4.35;;;;;;;;;;5031786;28;20037;-70
2023/08/22 08:14:53;;;;;;;9.40;4.47;;;;;;;;;;5029469;28;20388;-69
2023/08/22 08:17:38;;;;;;;6.45;4.00;;;;;;;;;;5045421;28;20045;-69
2023/08/22 08:20:24;;;;;;;6.53;4.45;;;;;;;;;;5032483;28;20061;-70
2023/08/22 08:23:10;;;;;;;8.93;4.47;;;;;;;;;;5031962;28;20373;-79
2023/08/22 08:25:55;;;;;;;5.93;4.10;;;;;;;;;;5033436;28;20452;-79
2023/08/22 08:28:40;;;;;;;6.65;4.28;;;;;;;;;;5030560;28;20083;-80
2023/08/22 08:31:25;;;;;;;7.40;4.13;;;;;;;;;;5023032;28;20123;-79
2023/08/22 08:34:11;;;;;;;6.93;4.00;;;;;;;;;;5031696;28;20030;-80
2023/08/22 08:36:56;;;;;;;6.88;3.95;;;;;;;;;;5028546;28;20034;-78
2023/08/22 08:39:41;;;;;;;6.85;4.40;;;;;;;;;;5043278;28;20021;-67
2023/08/22 08:42:26;;;;;;;8.35;4.78;;;;;;;;;;5031229;28;20036;-71
2023/08/22 08:45:14;;;;;;;8.32;4.85;;;;;;;;;;5040989;28;20304;-74
2023/08/22 08:48:00;;;;;;;7.40;4.30;;;;;;;;;;5028288;28;20193;-72
2023/08/22 08:50:46;;;;;;;5.85;4.70;;;;;;;;;;5029793;28;20414;-72
2023/08/22 08:53:32;;;;;;;9.30;4.18;;;;;;;;;;5040274;28;20048;-73
2023/08/22 08:56:17;;;;;;;7.90;4.38;;;;;;;;;;5022724;28;20047;-74
2023/08/22 08:59:02;;;;;;;4.75;3.53;;;;;;;;;;5022469;28;20038;-70
2023/08/22 09:01:49;;;;;;;7.22;3.80;;;;;;;;;;5020497;28;20059;-72
2023/08/22 09:04:35;;;;;;;6.20;3.53;;;;;;;;;;5046831;28;20039;-72
2023/08/22 09:07:20;;;;;;;6.68;4.28;;;;;;;;;;5019871;28;20499;-71
2023/08/22 09:10:06;;;;;;;8.75;3.78;;;;;;;;;;5028830;28;20049;-71
2023/08/22 09:12:51;;;;;;;7.85;3.85;;;;;;;;;;5024799;28;20624;-70
2023/08/22 09:15:36;;;;;;;8.43;3.95;;;;;;;;;;5014584;28;20440;-73
2023/08/22 09:18:22;;;;;;;7.97;4.13;;;;;;;;;;5024786;28;20037;-72
2023/08/22 09:21:07;;;;;;;5.68;3.90;;;;;;;;;;5030572;28;20315;-70
2023/08/22 09:23:52;;;;;;;6.07;4.05;;;;;;;;;;5037982;28;20072;-69
2023/08/22 09:26:38;;;;;;;5.55;3.97;;;;;;;;;;5036769;28;20067;-69
2023/08/22 09:29:32;;;;;;;5.75;4.00;;;;;;;;;;5048459;28;20124;-70
2023/08/22 09:32:19;;;;;;;8.50;4.60;;;;;;;;;;5045563;28;20085;-70
2023/08/22 09:35:06;;;;;;;5.93;3.88;;;;;;;;;;5045667;28;20479;-76
2023/08/22 09:37:51;;;;;;;5.72;3.50;;;;;;;;;;5054828;28;20475;-69
2023/08/22 09:40:55;;;;;;;6.38;4.32;;;;;;;;;;5037031;28;20380;-69
2023/08/22 09:43:42;;;;;;;10.05;4.38;;;;;;;;;;5042225;28;20036;-70
2023/08/22 09:46:28;;;;;;;6.78;4.35;;;;;;;;;;5052742;28;20368;-69
2023/08/22 09:49:14;;;;;;;12.82;4.85;;;;;;;;;;5036130;28;20188;-69
2023/08/22 09:52:01;;;;;;;9.93;3.97;;;;;;;;;;5022358;28;20135;-70
2023/08/22 09:54:47;;;;;;;8.38;4.72;;;;;;;;;;5041093;28;20036;-73
2023/08/22 09:57:33;;;;;;;7.38;4.43;;;;;;;;;;5054970;28;20496;-75
2023/08/22 10:00:18;;;;;;;8.55;3.97;;;;;;;;;;5047541;28;20119;-75
2023/08/22 10:03:05;;;;;;;6.60;4.32;;;;;;;;;;5044509;28;20041;-75
2023/08/22 10:05:51;;;;;;;7.18;5.07;;;;;;;;;;5022305;28;20577;-73
2023/08/22 10:08:37;;;;;;;7.18;4.55;;;;;;;;;;5036461;28;20547;-74
2023/08/22 10:11:22;;;;;;;7.63;4.03;;;;;;;;;;5046724;28;20086;-69
2023/08/22 10:14:12;;;;;;;4.82;3.55;;;;;;;;;;5043138;28;20041;-79
2023/08/22 10:16:58;;;;;;;5.68;4.22;;;;;;;;;;5042923;28;20028;-82
2023/08/22 10:19:43;;;;;;;6.97;3.80;;;;;;;;;;5047153;28;20270;-79
2023/08/22 10:22:30;;;;;;;8.00;4.35;;;;;;;;;;5048748;28;20040;-82
2023/08/22 10:25:15;;;;;;;9.10;4.45;;;;;;;;;;5030419;28;20419;-81
2023/08/22 10:28:03;;;;;;;7.53;4.18;;;;;;;;;;5032494;28;20041;-81
2023/08/22 10:31:04;;;;;;;6.05;3.88;;;;;;;;;;5039529;28;20076;-71
2023/08/22 10:33:59;;;;;;;5.97;3.45;;;;;;;;;;5039270;28;20497;-71
2023/08/22 10:36:55;;;;;;;7.65;4.13;;;;;;;;;;5052904;28;20072;-69
2023/08/22 10:39:44;;;;;;;5.60;3.90;;;;;;;;;;5043598;28;20135;-71
2023/08/22 10:42:30;;;;;;;8.68;4.35;;;;;;;;;;5038230;28;20048;-69
2023/08/22 10:45:16;;;;;;;8.60;4.47;;;;;;;;;;5043621;28;20040;-67
2023/08/22 10:48:09;;;;;;;7.80;4.90;;;;;;;;;;5040343;28;20050;-72
2023/08/22 10:51:04;;;;;;;9.43;3.72;;;;;;;;;;5042398;28;20035;-73
2023/08/22 10:53:49;;;;;;;6.22;4.05;;;;;;;;;;5039714;28;20594;-75
2023/08/22 10:56:34;;;;;;;8.18;4.35;;;;;;;;;;5037801;28;20037;-75
2023/08/22 10:59:19;;;;;;;8.95;4.13;;;;;;;;;;5052173;28;20032;-74
2023/08/22 11:02:05;;;;;;;10.38;4.15;;;;;;;;;;5039519;28;20545;-73
2023/08/22 11:04:51;;;;;;;5.82;3.70;;;;;;;;;;5052879;28;20025;-76
2023/08/22 11:07:39;;;;;;;7.03;4.07;;;;;;;;;;5037640;28;20076;-73
2023/08/22 11:10:25;;;;;;;7.00;3.75;;;;;;;;;;5054962;28;20171;-73
2023/08/22 11:13:10;;;;;;;7.40;3.67;;;;;;;;;;5044750;28;20487;-75
2023/08/22 11:15:55;;;;;;;5.10;3.78;;;;;;;;;;5038866;28;20041;-73
2023/08/22 11:18:41;;;;;;;5.68;3.60;;;;;;;;;;5038640;28;20103;-74
2023/08/22 11:21:26;;;;;;;10.95;4.38;;;;;;;;;;5039849;28;20110;-73
2023/08/22 11:24:11;;;;;;;7.20;4.25;;;;;;;;;;5038939;28;20369;-74
2023/08/22 11:27:00;;;;;;;3.92;3.42;;;;;;;;;;5052721;28;20251;-71
2023/08/22 11:29:47;;;;;;;6.72;3.50;;;;;;;;;;5038814;28;20389;-71
2023/08/22 11:32:33;;;;;;;5.53;4.18;;;;;;;;;;5038045;28;20048;-71
2023/08/22 11:35:18;;;;;;;10.68;4.80;;;;;;;;;;5038922;28;20068;-71
2023/08/22 11:38:05;;;;;;;6.28;3.60;;;;;;;;;;5038204;28;20284;-72
2023/08/22 11:40:51;;;;;;;11.45;4.28;;;;;;;;;;5038510;28;20489;-73
2023/08/22 11:43:46;;;;;;;6.00;3.97;;;;;;;;;;5039951;28;20087;-68
2023/08/22 11:46:36;;;;;;;9.43;2.95;;;;;;;;;;5037830;28;20025;-71
2023/08/22 11:49:22;;;;;;;8.63;3.60;;;;;;;;;;5038304;28;20366;-73
2023/08/22 11:52:07;;;;;;;8.35;3.67;;;;;;;;;;5037689;28;20547;-69
2023/08/22 11:55:00;;;;;;;6.90;4.05;;;;;;;;;;5040763;28;20495;-75
2023/08/22 11:57:45;;;;;;;8.35;4.18;;;;;;;;;;5052833;28;20033;-71
2023/08/22 12:00:31;;;;;;;8.93;4.10;;;;;;;;;;5037162;28;20495;-69
2023/08/22 12:03:16;;;;;;;12.25;3.70;;;;;;;;;;5041256;28;20029;-73
2023/08/22 12:06:10;;;;;;;7.07;3.58;;;;;;;;;;5043519;28;20049;-79
2023/08/22 12:08:56;;;;;;;6.20;3.53;;;;;;;;;;5043355;28;20079;-80
2023/08/22 12:11:42;;;;;;;6.53;4.18;;;;;;;;;;5042937;28;20510;-81
2023/08/22 12:14:27;;;;;;;8.82;4.20;;;;;;;;;;5056469;28;20055;-77
2023/08/22 12:17:12;;;;;;;6.57;4.53;;;;;;;;;;5042223;28;20025;-80
2023/08/22 12:19:57;;;;;;;6.25;3.70;;;;;;;;;;5044237;28;20025;-72
2023/08/22 12:22:42;;;;;;;7.97;3.85;;;;;;;;;;5041763;28;20048;-71
2023/08/22 12:25:28;;;;;;;9.25;3.75;;;;;;;;;;5040592;28;20036;-80
2023/08/22 12:28:16;;;;;;;8.40;3.75;;;;;;;;;;5039819;28;20036;-73
2023/08/22 12:31:01;;;;;;;7.28;3.78;;;;;;;;;;5042919;28;20040;-72
2023/08/22 12:33:47;;;;;;;8.30;3.40;;;;;;;;;;5042103;28;20033;-68
2023/08/22 12:36:32;;;;;;;5.88;3.85;;;;;;;;;;5055737;28;20036;-73
2023/08/22 12:39:17;;;;;;;6.63;3.58;;;;;;;;;;5042786;28;20079;-68
2023/08/22 12:42:03;;;;;;;6.97;3.25;;;;;;;;;;5021454;28;20032;-71
2023/08/22 12:44:48;;;;;;;4.53;3.63;;;;;;;;;;5039016;28;20476;-70
2023/08/22 12:47:34;;;;;;;4.30;2.85;;;;;;;;;;5054092;28;20032;-69
2023/08/22 12:50:20;;;;;;;5.45;3.75;;;;;;;;;;5040667;28;20041;-69
2023/08/22 12:53:09;;;;;;;6.63;3.78;;;;;;;;;;5042890;28;20060;-68
2023/08/22 12:55:54;;;;;;;5.80;3.13;;;;;;;;;;5044661;28;20033;-68
2023/08/22 12:58:39;;;;;;;7.32;3.80;;;;;;;;;;5041593;28;20440;-71
2023/08/22 13:01:24;;;;;;;3.58;2.88;;;;;;;;;;5039169;28;20557;-74
2023/08/22 13:04:11;;;;;;;3.83;3.22;;;;;;;;;;5040907;28;20385;-74
2023/08/22 13:06:56;;;;;;;6.20;3.25;;;;;;;;;;5041015;28;20058;-73
2023/08/22 13:09:41;;;;;;;6.10;3.72;;;;;;;;;;5040929;28;20033;-73
2023/08/22 13:12:27;;;;;;;6.63;2.95;;;;;;;;;;5041404;28;20061;-73
2023/08/22 13:15:12;;;;;;;7.90;4.25;;;;;;;;;;5041280;28;20439;-71
2023/08/22 13:17:57;;;;;;;4.60;3.75;;;;;;;;;;5038590;28;20025;-72
2023/08/22 13:20:42;;;;;;;5.70;3.08;;;;;;;;;;5056249;28;20525;-72
2023/08/22 13:23:27;;;;;;;6.18;3.58;;;;;;;;;;5040132;28;20128;-71
2023/08/22 13:26:13;;;;;;;6.88;3.45;;;;;;;;;;5041258;28;20033;-71
2023/08/22 13:28:58;;;;;;;6.00;3.42;;;;;;;;;;5040445;28;20486;-72
2023/08/22 13:31:45;;;;;;;8.15;3.67;;;;;;;;;;5045098;28;20253;-72
2023/08/22 13:34:30;;;;;;;5.38;3.75;;;;;;;;;;5040697;28;20041;-70
2023/08/22 13:37:15;;;;;;;7.80;3.92;;;;;;;;;;5041050;28;20239;-68
2023/08/22 13:40:02;;;;;;;5.53;3.67;;;;;;;;;;5039748;28;20051;-70
2023/08/22 13:42:47;;;;;;;5.28;3.28;;;;;;;;;;5040527;28;20037;-72
2023/08/22 13:45:32;;;;;;;6.93;4.22;;;;;;;;;;5041458;28;20067;-72
2023/08/22 13:48:17;;;;;;;6.22;3.42;;;;;;;;;;5039331;28;20394;-69
2023/08/22 13:51:03;;;;;;;4.90;3.20;;;;;;;;;;5045854;28;20116;-69
2023/08/22 13:53:48;;;;;;;6.55;3.70;;;;;;;;;;5042045;28;20323;-74
2023/08/22 13:56:33;;;;;;;6.00;3.78;;;;;;;;;;5043514;28;20041;-71
2023/08/22 13:59:18;;;;;;;8.13;3.55;;;;;;;;;;5037596;28;20044;-70
2023/08/22 14:02:04;;;;;;;4.63;3.20;;;;;;;;;;5039950;28;20025;-71
2023/08/22 14:04:49;;;;;;;7.15;4.10;;;;;;;;;;5041289;28;20134;-70
2023/08/22 14:07:35;;;;;;;10.02;3.67;;;;;;;;;;5030454;28;20200;-70
2023/08/22 14:10:23;;;;;;;6.38;4.43;;;;;;;;;;5038659;28;20082;-68
2023/08/22 14:13:08;;;;;;;6.75;3.70;;;;;;;;;;5041700;28;20037;-71
2023/08/22 14:15:54;;;;;;;5.22;3.30;;;;;;;;;;5039114;28;20043;-72
2023/08/22 14:18:39;;;;;;;4.00;3.45;;;;;;;;;;5039373;28;20033;-72
2023/08/22 14:21:24;;;;;;;5.63;3.60;;;;;;;;;;5039862;28;20044;-70
2023/08/22 14:24:09;;;;;;;7.63;4.40;;;;;;;;;;5042322;28;20036;-70
2023/08/22 14:26:54;;;;;;;5.68;3.65;;;;;;;;;;5037170;28;20037;-73
2023/08/22 14:29:39;;;;;;;7.13;3.47;;;;;;;;;;5035461;28;20512;-75
2023/08/22 14:32:25;;;;;;;3.97;2.90;;;;;;;;;;5039164;28;20037;-69
2023/08/22 14:35:10;;;;;;;6.22;3.17;;;;;;;;;;5042282;28;20033;-69
2023/08/22 14:37:56;;;;;;;5.35;3.25;;;;;;;;;;5039803;28;20060;-66
2023/08/22 14:40:51;;;;;;;6.13;3.35;;;;;;;;;;5037606;28;20357;-68
2023/08/22 14:43:36;;;;;;;5.85;3.85;;;;;;;;;;5052493;28;20032;-68
2023/08/22 14:46:21;;;;;;;7.07;3.17;;;;;;;;;;5038394;28;20075;-67
2023/08/22 14:49:07;;;;;;;7.07;3.40;;;;;;;;;;5041840;28;20032;-72
2023/08/22 14:51:52;;;;;;;4.70;3.38;;;;;;;;;;5039102;28;20033;-69
2023/08/22 14:54:37;;;;;;;5.65;3.60;;;;;;;;;;5040049;28;20036;-67
2023/08/22 14:57:22;;;;;;;4.68;3.10;;;;;;;;;;5044744;28;20384;-69
2023/08/22 15:00:09;;;;;;;6.50;3.78;;;;;;;;;;5039166;28;20039;-68
2023/08/22 15:02:55;;;;;;;7.82;3.72;;;;;;;;;;5039839;28;20036;-66
2023/08/22 15:05:40;;;;;;;4.65;3.42;;;;;;;;;;5038934;28;20037;-71
2023/08/22 15:08:25;;;;;;;7.95;3.38;;;;;;;;;;5042685;28;20037;-71
2023/08/22 15:11:10;;;;;;;10.63;4.13;;;;;;;;;;5039452;28;20033;-71
2023/08/22 15:13:55;;;;;;;6.93;3.55;;;;;;;;;;5038953;28;20531;-72
2023/08/22 15:16:41;;;;;;;7.10;3.80;;;;;;;;;;5038190;28;20033;-71
2023/08/22 15:19:26;;;;;;;8.35;3.65;;;;;;;;;;5012369;28;20033;-70
2023/08/22 15:22:11;;;;;;;5.75;3.72;;;;;;;;;;5039813;28;20372;-72
2023/08/22 15:24:57;;;;;;;5.60;3.50;;;;;;;;;;5038572;28;20196;-74
2023/08/22 15:27:42;;;;;;;9.80;3.28;;;;;;;;;;5044713;28;20107;-71
2023/08/22 15:30:27;;;;;;;10.82;4.18;;;;;;;;;;5040109;28;20052;-68
2023/08/22 15:33:13;;;;;;;7.68;3.53;;;;;;;;;;5037609;28;20029;-70
2023/08/22 15:36:01;;;;;;;8.43;4.50;;;;;;;;;;5037677;28;20245;-67
2023/08/22 15:38:46;;;;;;;7.00;4.40;;;;;;;;;;5043258;28;20034;-68
2023/08/22 15:41:31;;;;;;;7.70;3.67;;;;;;;;;;5048415;28;20047;-69
2023/08/22 15:44:17;;;;;;;7.03;3.88;;;;;;;;;;5043713;28;20036;-67
2023/08/22 15:47:02;;;;;;;9.68;4.15;;;;;;;;;;5047683;28;20349;-64
2023/08/22 15:49:47;;;;;;;7.82;4.60;;;;;;;;;;5042486;28;20033;-65
2023/08/22 15:52:32;;;;;;;8.07;3.70;;;;;;;;;;5042472;28;20335;-64
2023/08/22 15:55:18;;;;;;;6.85;3.30;;;;;;;;;;5059621;28;20071;-67
2023/08/22 15:58:03;;;;;;;7.25;4.05;;;;;;;;;;5044619;28;20112;-66
2023/08/22 16:00:48;;;;;;;4.55;3.67;;;;;;;;;;5038808;28;20541;-71
2023/08/22 16:03:33;;;;;;;5.47;2.95;;;;;;;;;;5044075;28;20029;-72
2023/08/22 16:06:19;;;;;;;5.00;3.28;;;;;;;;;;5025780;28;20068;-69
2023/08/22 16:09:04;;;;;;;5.35;3.15;;;;;;;;;;5029630;28;20490;-69
2023/08/22 16:11:50;;;;;;;7.20;3.72;;;;;;;;;;5033356;28;20160;-70
2023/08/22 16:14:36;;;;;;;8.63;3.80;;;;;;;;;;5036351;28;20114;-74
2023/08/22 16:17:21;;;;;;;9.25;4.07;;;;;;;;;;5034159;28;20028;-69
2023/08/22 16:20:06;;;;;;;6.90;3.63;;;;;;;;;;5034310;28;20119;-71
2023/08/22 16:22:52;;;;;;;5.57;3.42;;;;;;;;;;5032442;28;20040;-71
2023/08/22 16:25:40;;;;;;;6.43;3.42;;;;;;;;;;5031870;28;20116;-70
2023/08/22 16:28:25;;;;;;;7.45;3.80;;;;;;;;;;5046810;28;20081;-71
2023/08/22 16:31:10;;;;;;;4.07;2.83;;;;;;;;;;5036368;28;20025;-73